sensor_id;sensor_type;location;lat;lon;timestamp;noise_LAeq;noise_LA_min;noise_LA_max;noise_LA01;noise_LA95
69608;Laerm;57251;52.248;4.812;2024-01-16T00:00:07;44.31;33.83;56.74;;
69608;Laerm;57251;52.248;4.812;2024-01-16T00:00:19;48.75;34.21;64.60;;
69608;Laerm;57251;52.248;4.812;2024-01-16T00:00:30;50.34;33.55;59.32;;
69608;Laerm;57251;52.248;4.812;2024-01-16T00:00:40;36.19;33.84;45.50;;
69608;Laerm;57251;52.248;4.812;2024-01-16T00:00:50;35.66;33.89;37.53;;
69608;Laerm;57251;52.248;4.812;2024-01-16T00:01:01;37.42;34.05;40.97;;
69608;Laerm;57251;52.248;4.812;2024-01-16T00:01:11;38.88;34.03;48.51;;
69608;Laerm;57251;52.248;4.812;2024-01-16T00:01:22;43.11;36.15;50.63;;
69608;Laerm;57251;52.248;4.812;2024-01-16T00:01:32;40.42;33.63;47.38;;
69608;Laerm;57251;52.248;4.812;2024-01-16T00:01:44;38.51;34.70;42.17;;
69608;Laerm;57251;52.248;4.812;2024-01-16T00:01:55;41.75;33.94;47.99;;
69608;Laerm;57251;52.248;4.812;2024-01-16T00:02:05;37.17;34.88;42.49;;
69608;Laerm;57251;52.248;4.812;2024-01-16T00:02:18;35.62;33.56;37.33;;
69608;Laerm;57251;52.248;4.812;2024-01-16T00:02:28;35.53;33.77;42.06;;
69608;Laerm;57251;52.248;4.812;2024-01-16T00:02:38;35.19;33.53;36.84;;
69608;Laerm;57251;52.248;4.812;2024-01-16T00:02:50;35.45;33.93;45.57;;
69608;Laerm;57251;52.248;4.812;2024-01-16T00:03:00;35.78;33.62;41.80;;
69608;Laerm;57251;52.248;4.812;2024-01-16T00:03:11;35.21;33.59;39.42;;
69608;Laerm;57251;52.248;4.812;2024-01-16T00:03:21;39.79;33.73;55.13;;
69608;Laerm;57251;52.248;4.812;2024-01-16T00:03:31;47.45;34.22;61.83;;
69608;Laerm;57251;52.248;4.812;2024-01-16T00:03:42;49.29;34.25;59.77;;
69608;Laerm;57251;52.248;4.812;2024-01-16T00:03:52;36.98;33.63;47.33;;
69608;Laerm;57251;52.248;4.812;2024-01-16T00:04:03;55.05;33.47;66.85;;
69608;Laerm;57251;52.248;4.812;2024-01-16T00:04:13;48.43;34.03;59.65;;
69608;Laerm;57251;52.248;4.812;2024-01-16T00:04:23;35.77;33.25;43.79;;
69608;Laerm;57251;52.248;4.812;2024-01-16T00:04:37;35.09;33.08;42.63;;
69608;Laerm;57251;52.248;4.812;2024-01-16T00:04:47;41.46;33.89;46.75;;
69608;Laerm;57251;52.248;4.812;2024-01-16T00:04:57;39.00;34.09;43.54;;
69608;Laerm;57251;52.248;4.812;2024-01-16T00:05:08;35.30;33.71;40.05;;
69608;Laerm;57251;52.248;4.812;2024-01-16T00:05:19;36.98;33.46;43.88;;
69608;Laerm;57251;52.248;4.812;2024-01-16T00:05:29;48.09;34.13;62.34;;
69608;Laerm;57251;52.248;4.812;2024-01-16T00:05:39;45.64;35.00;60.10;;
69608;Laerm;57251;52.248;4.812;2024-01-16T00:05:50;45.49;33.88;59.56;;
69608;Laerm;57251;52.248;4.812;2024-01-16T00:06:00;40.63;34.50;51.05;;
69608;Laerm;57251;52.248;4.812;2024-01-16T00:06:10;38.62;34.12;49.71;;
69608;Laerm;57251;52.248;4.812;2024-01-16T00:06:21;44.42;33.09;54.10;;
69608;Laerm;57251;52.248;4.812;2024-01-16T00:06:31;40.06;33.57;53.77;;
69608;Laerm;57251;52.248;4.812;2024-01-16T00:06:41;51.25;34.41;68.29;;
69608;Laerm;57251;52.248;4.812;2024-01-16T00:06:52;39.60;33.70;55.62;;
69608;Laerm;57251;52.248;4.812;2024-01-16T00:07:02;35.60;33.86;41.17;;
69608;Laerm;57251;52.248;4.812;2024-01-16T00:07:12;35.53;33.64;41.29;;
69608;Laerm;57251;52.248;4.812;2024-01-16T00:07:23;35.85;33.75;43.19;;
69608;Laerm;57251;52.248;4.812;2024-01-16T00:07:33;42.60;33.86;56.66;;
69608;Laerm;57251;52.248;4.812;2024-01-16T00:07:45;45.31;34.32;59.42;;
69608;Laerm;57251;52.248;4.812;2024-01-16T00:07:55;36.27;33.67;46.59;;
69608;Laerm;57251;52.248;4.812;2024-01-16T00:08:08;45.34;33.16;60.32;;
69608;Laerm;57251;52.248;4.812;2024-01-16T00:08:18;38.60;33.49;51.25;;
69608;Laerm;57251;52.248;4.812;2024-01-16T00:08:28;40.38;33.60;54.01;;
69608;Laerm;57251;52.248;4.812;2024-01-16T00:08:39;36.57;33.63;44.10;;
69608;Laerm;57251;52.248;4.812;2024-01-16T00:08:49;35.09;33.28;37.56;;
69608;Laerm;57251;52.248;4.812;2024-01-16T00:08:59;34.81;32.98;36.34;;
69608;Laerm;57251;52.248;4.812;2024-01-16T00:09:09;34.90;33.07;36.45;;
69608;Laerm;57251;52.248;4.812;2024-01-16T00:09:22;35.27;33.49;40.51;;
69608;Laerm;57251;52.248;4.812;2024-01-16T00:09:33;35.07;33.18;37.73;;
69608;Laerm;57251;52.248;4.812;2024-01-16T00:09:44;35.28;33.35;39.81;;
69608;Laerm;57251;52.248;4.812;2024-01-16T00:09:55;35.93;33.51;42.60;;
69608;Laerm;57251;52.248;4.812;2024-01-16T00:10:08;35.72;33.66;37.93;;
69608;Laerm;57251;52.248;4.812;2024-01-16T00:10:19;35.84;33.93;41.45;;
69608;Laerm;57251;52.248;4.812;2024-01-16T00:10:29;35.28;33.70;37.30;;
69608;Laerm;57251;52.248;4.812;2024-01-16T00:10:39;36.11;33.42;47.16;;
69608;Laerm;57251;52.248;4.812;2024-01-16T00:10:50;34.95;32.96;36.99;;
69608;Laerm;57251;52.248;4.812;2024-01-16T00:11:01;35.98;33.43;45.24;;
69608;Laerm;57251;52.248;4.812;2024-01-16T00:11:11;35.15;33.18;39.96;;
69608;Laerm;57251;52.248;4.812;2024-01-16T00:11:22;34.87;33.19;36.69;;
69608;Laerm;57251;52.248;4.812;2024-01-16T00:11:32;35.07;33.13;39.84;;
69608;Laerm;57251;52.248;4.812;2024-01-16T00:11:42;38.13;33.25;48.60;;
69608;Laerm;57251;52.248;4.812;2024-01-16T00:11:53;45.95;33.84;56.81;;
69608;Laerm;57251;52.248;4.812;2024-01-16T00:12:03;48.00;33.98;61.75;;
69608;Laerm;57251;52.248;4.812;2024-01-16T00:12:16;43.49;32.71;57.04;;
69608;Laerm;57251;52.248;4.812;2024-01-16T00:12:26;36.17;33.08;43.29;;
69608;Laerm;57251;52.248;4.812;2024-01-16T00:12:36;36.52;33.21;48.67;;
69608;Laerm;57251;52.248;4.812;2024-01-16T00:12:47;38.05;33.25;51.11;;
69608;Laerm;57251;52.248;4.812;2024-01-16T00:12:57;51.39;34.01;63.33;;
69608;Laerm;57251;52.248;4.812;2024-01-16T00:13:07;44.75;34.15;57.41;;
69608;Laerm;57251;52.248;4.812;2024-01-16T00:13:18;38.49;33.51;51.93;;
69608;Laerm;57251;52.248;4.812;2024-01-16T00:13:28;35.14;33.55;38.76;;
69608;Laerm;57251;52.248;4.812;2024-01-16T00:13:38;37.94;33.55;55.05;;
69608;Laerm;57251;52.248;4.812;2024-01-16T00:13:48;43.39;33.34;57.31;;
69608;Laerm;57251;52.248;4.812;2024-01-16T00:13:59;34.93;33.02;41.20;;
69608;Laerm;57251;52.248;4.812;2024-01-16T00:14:09;35.01;33.40;40.65;;
69608;Laerm;57251;52.248;4.812;2024-01-16T00:14:19;35.65;33.28;47.30;;
69608;Laerm;57251;52.248;4.812;2024-01-16T00:14:29;44.02;33.81;57.52;;
69608;Laerm;57251;52.248;4.812;2024-01-16T00:14:40;35.46;33.73;41.98;;
69608;Laerm;57251;52.248;4.812;2024-01-16T00:14:50;35.44;33.30;39.91;;
69608;Laerm;57251;52.248;4.812;2024-01-16T00:15:00;35.06;33.58;37.02;;
69608;Laerm;57251;52.248;4.812;2024-01-16T00:15:10;35.19;33.80;36.93;;
69608;Laerm;57251;52.248;4.812;2024-01-16T00:15:21;48.68;34.33;60.94;;
69608;Laerm;57251;52.248;4.812;2024-01-16T00:15:31;45.23;34.05;60.50;;
69608;Laerm;57251;52.248;4.812;2024-01-16T00:15:42;43.61;33.17;57.39;;
69608;Laerm;57251;52.248;4.812;2024-01-16T00:15:52;42.28;33.93;53.70;;
69608;Laerm;57251;52.248;4.812;2024-01-16T00:16:02;36.78;32.95;49.15;;
69608;Laerm;57251;52.248;4.812;2024-01-16T00:16:15;44.96;33.13;57.30;;
69608;Laerm;57251;52.248;4.812;2024-01-16T00:16:26;35.06;33.07;36.76;;
69608;Laerm;57251;52.248;4.812;2024-01-16T00:16:45;40.54;33.73;53.03;;
69608;Laerm;57251;52.248;4.812;2024-01-16T00:16:56;40.96;33.77;54.09;;
69608;Laerm;57251;52.248;4.812;2024-01-16T00:17:06;39.91;33.45;55.22;;
69608;Laerm;57251;52.248;4.812;2024-01-16T00:17:16;40.99;33.28;54.08;;
69608;Laerm;57251;52.248;4.812;2024-01-16T00:17:26;51.21;33.69;63.52;;
69608;Laerm;57251;52.248;4.812;2024-01-16T00:17:37;36.17;33.78;44.62;;
69608;Laerm;57251;52.248;4.812;2024-01-16T00:17:47;37.74;33.36;51.47;;
69608;Laerm;57251;52.248;4.812;2024-01-16T00:17:57;39.67;33.38;49.17;;
69608;Laerm;57251;52.248;4.812;2024-01-16T00:18:08;39.62;33.25;50.99;;
69608;Laerm;57251;52.248;4.812;2024-01-16T00:18:18;35.72;33.61;39.03;;
69608;Laerm;57251;52.248;4.812;2024-01-16T00:18:29;36.86;33.75;47.93;;
69608;Laerm;57251;52.248;4.812;2024-01-16T00:18:39;35.09;33.65;37.38;;
69608;Laerm;57251;52.248;4.812;2024-01-16T00:18:49;35.30;33.21;41.42;;
69608;Laerm;57251;52.248;4.812;2024-01-16T00:19:00;35.61;33.55;45.82;;
69608;Laerm;57251;52.248;4.812;2024-01-16T00:19:10;35.81;33.25;44.18;;
69608;Laerm;57251;52.248;4.812;2024-01-16T00:19:21;36.06;33.42;45.41;;
69608;Laerm;57251;52.248;4.812;2024-01-16T00:19:31;46.61;34.45;55.83;;
69608;Laerm;57251;52.248;4.812;2024-01-16T00:19:42;37.34;33.35;46.64;;
69608;Laerm;57251;52.248;4.812;2024-01-16T00:19:52;35.56;33.92;39.14;;
69608;Laerm;57251;52.248;4.812;2024-01-16T00:20:02;35.92;33.93;37.92;;
69608;Laerm;57251;52.248;4.812;2024-01-16T00:20:15;36.17;33.81;44.06;;
69608;Laerm;57251;52.248;4.812;2024-01-16T00:20:25;36.60;33.79;45.93;;
69608;Laerm;57251;52.248;4.812;2024-01-16T00:20:35;35.91;34.15;38.80;;
69608;Laerm;57251;52.248;4.812;2024-01-16T00:20:46;37.47;33.99;45.90;;
69608;Laerm;57251;52.248;4.812;2024-01-16T00:20:56;36.94;34.06;46.52;;
69608;Laerm;57251;52.248;4.812;2024-01-16T00:21:06;41.15;33.63;55.10;;
69608;Laerm;57251;52.248;4.812;2024-01-16T00:21:16;41.40;33.92;50.58;;
69608;Laerm;57251;52.248;4.812;2024-01-16T00:21:27;39.73;33.60;54.68;;
69608;Laerm;57251;52.248;4.812;2024-01-16T00:21:40;35.65;33.28;42.56;;
69608;Laerm;57251;52.248;4.812;2024-01-16T00:21:50;36.91;33.20;48.85;;
69608;Laerm;57251;52.248;4.812;2024-01-16T00:22:01;35.71;33.50;42.96;;
69608;Laerm;57251;52.248;4.812;2024-01-16T00:22:13;36.92;32.98;46.24;;
69608;Laerm;57251;52.248;4.812;2024-01-16T00:22:23;35.20;33.37;40.70;;
69608;Laerm;57251;52.248;4.812;2024-01-16T00:22:33;36.95;33.44;46.13;;
69608;Laerm;57251;52.248;4.812;2024-01-16T00:22:43;37.38;33.62;46.36;;
69608;Laerm;57251;52.248;4.812;2024-01-16T00:22:54;36.51;33.59;46.13;;
69608;Laerm;57251;52.248;4.812;2024-01-16T00:23:04;34.82;33.39;37.81;;
69608;Laerm;57251;52.248;4.812;2024-01-16T00:23:14;35.15;32.84;39.86;;
69608;Laerm;57251;52.248;4.812;2024-01-16T00:23:25;35.50;33.21;45.22;;
69608;Laerm;57251;52.248;4.812;2024-01-16T00:23:35;34.95;33.39;36.70;;
69608;Laerm;57251;52.248;4.812;2024-01-16T00:23:46;35.01;33.36;37.49;;
69608;Laerm;57251;52.248;4.812;2024-01-16T00:23:56;35.03;33.10;38.60;;
69608;Laerm;57251;52.248;4.812;2024-01-16T00:24:06;36.61;33.51;48.01;;
69608;Laerm;57251;52.248;4.812;2024-01-16T00:24:17;38.24;33.76;52.06;;
69608;Laerm;57251;52.248;4.812;2024-01-16T00:24:27;45.62;33.93;58.51;;
69608;Laerm;57251;52.248;4.812;2024-01-16T00:24:37;40.69;33.65;52.33;;
69608;Laerm;57251;52.248;4.812;2024-01-16T00:24:48;36.12;33.16;44.31;;
69608;Laerm;57251;52.248;4.812;2024-01-16T00:24:58;45.62;33.24;57.94;;
69608;Laerm;57251;52.248;4.812;2024-01-16T00:25:09;36.31;33.58;43.85;;
69608;Laerm;57251;52.248;4.812;2024-01-16T00:25:19;40.07;33.80;56.91;;
69608;Laerm;57251;52.248;4.812;2024-01-16T00:25:30;39.26;33.59;51.29;;
69608;Laerm;57251;52.248;4.812;2024-01-16T00:25:40;37.91;33.04;49.73;;
69608;Laerm;57251;52.248;4.812;2024-01-16T00:25:51;35.59;33.48;41.61;;
69608;Laerm;57251;52.248;4.812;2024-01-16T00:26:01;35.53;33.97;40.12;;
69608;Laerm;57251;52.248;4.812;2024-01-16T00:26:21;37.59;33.54;51.45;;
69608;Laerm;57251;52.248;4.812;2024-01-16T00:26:32;39.77;33.93;53.14;;
69608;Laerm;57251;52.248;4.812;2024-01-16T00:26:42;36.94;34.15;48.64;;
69608;Laerm;57251;52.248;4.812;2024-01-16T00:26:52;36.00;34.23;39.22;;
69608;Laerm;57251;52.248;4.812;2024-01-16T00:27:03;36.13;33.98;38.38;;
69608;Laerm;57251;52.248;4.812;2024-01-16T00:27:13;35.61;34.06;37.59;;
69608;Laerm;57251;52.248;4.812;2024-01-16T00:27:23;35.41;33.52;39.25;;
69608;Laerm;57251;52.248;4.812;2024-01-16T00:27:33;37.24;33.61;47.54;;
69608;Laerm;57251;52.248;4.812;2024-01-16T00:27:44;35.03;32.54;40.12;;
69608;Laerm;57251;52.248;4.812;2024-01-16T00:27:54;35.28;33.30;39.86;;
69608;Laerm;57251;52.248;4.812;2024-01-16T00:28:05;36.08;33.51;47.25;;
69608;Laerm;57251;52.248;4.812;2024-01-16T00:28:15;34.98;33.72;36.84;;
69608;Laerm;57251;52.248;4.812;2024-01-16T00:28:25;34.98;33.51;41.75;;
69608;Laerm;57251;52.248;4.812;2024-01-16T00:28:36;35.31;33.48;38.10;;
69608;Laerm;57251;52.248;4.812;2024-01-16T00:28:46;36.56;33.50;45.06;;
69608;Laerm;57251;52.248;4.812;2024-01-16T00:28:56;35.38;33.22;39.61;;
69608;Laerm;57251;52.248;4.812;2024-01-16T00:29:07;36.05;33.80;42.82;;
69608;Laerm;57251;52.248;4.812;2024-01-16T00:29:19;35.31;33.62;38.30;;
69608;Laerm;57251;52.248;4.812;2024-01-16T00:29:29;35.54;33.49;39.30;;
69608;Laerm;57251;52.248;4.812;2024-01-16T00:29:40;35.20;33.35;36.98;;
69608;Laerm;57251;52.248;4.812;2024-01-16T00:29:51;35.29;33.56;40.61;;
69608;Laerm;57251;52.248;4.812;2024-01-16T00:30:01;35.44;33.49;37.14;;
69608;Laerm;57251;52.248;4.812;2024-01-16T00:30:12;35.47;33.93;38.63;;
69608;Laerm;57251;52.248;4.812;2024-01-16T00:30:24;35.90;33.66;41.95;;
69608;Laerm;57251;52.248;4.812;2024-01-16T00:30:38;34.91;33.29;38.93;;
69608;Laerm;57251;52.248;4.812;2024-01-16T00:30:48;34.67;32.87;37.26;;
69608;Laerm;57251;52.248;4.812;2024-01-16T00:30:58;35.94;33.21;48.67;;
69608;Laerm;57251;52.248;4.812;2024-01-16T00:31:09;35.49;33.55;39.86;;
69608;Laerm;57251;52.248;4.812;2024-01-16T00:31:19;34.74;32.78;37.63;;
69608;Laerm;57251;52.248;4.812;2024-01-16T00:31:29;34.83;33.18;36.85;;
69608;Laerm;57251;52.248;4.812;2024-01-16T00:31:39;36.96;33.50;49.31;;
69608;Laerm;57251;52.248;4.812;2024-01-16T00:31:50;35.79;33.45;43.30;;
69608;Laerm;57251;52.248;4.812;2024-01-16T00:32:00;35.24;33.33;41.27;;
69608;Laerm;57251;52.248;4.812;2024-01-16T00:32:10;35.52;33.34;40.23;;
69608;Laerm;57251;52.248;4.812;2024-01-16T00:32:20;35.49;33.34;41.82;;
69608;Laerm;57251;52.248;4.812;2024-01-16T00:32:31;37.15;33.43;45.74;;
69608;Laerm;57251;52.248;4.812;2024-01-16T00:32:41;35.24;33.58;37.64;;
69608;Laerm;57251;52.248;4.812;2024-01-16T00:32:52;35.26;33.85;38.57;;
69608;Laerm;57251;52.248;4.812;2024-01-16T00:33:02;35.46;33.92;37.04;;
69608;Laerm;57251;52.248;4.812;2024-01-16T00:33:12;35.36;33.87;37.00;;
69608;Laerm;57251;52.248;4.812;2024-01-16T00:33:23;35.31;33.78;39.68;;
69608;Laerm;57251;52.248;4.812;2024-01-16T00:33:33;34.97;33.39;36.52;;
69608;Laerm;57251;52.248;4.812;2024-01-16T00:33:43;35.35;33.95;37.09;;
69608;Laerm;57251;52.248;4.812;2024-01-16T00:33:54;35.23;33.18;37.04;;
69608;Laerm;57251;52.248;4.812;2024-01-16T00:34:04;35.14;33.76;36.60;;
69608;Laerm;57251;52.248;4.812;2024-01-16T00:34:14;35.41;33.81;37.25;;
69608;Laerm;57251;52.248;4.812;2024-01-16T00:34:25;35.97;34.49;38.01;;
69608;Laerm;57251;52.248;4.812;2024-01-16T00:34:35;36.30;33.75;42.89;;
69608;Laerm;57251;52.248;4.812;2024-01-16T00:34:45;36.62;33.84;44.29;;
69608;Laerm;57251;52.248;4.812;2024-01-16T00:34:56;35.57;33.66;37.49;;
69608;Laerm;57251;52.248;4.812;2024-01-16T00:35:06;35.70;33.95;37.31;;
69608;Laerm;57251;52.248;4.812;2024-01-16T00:35:16;35.79;33.84;37.87;;
69608;Laerm;57251;52.248;4.812;2024-01-16T00:35:27;35.82;34.05;38.73;;
69608;Laerm;57251;52.248;4.812;2024-01-16T00:35:37;35.66;33.95;37.25;;
69608;Laerm;57251;52.248;4.812;2024-01-16T00:35:47;35.46;34.01;38.23;;
69608;Laerm;57251;52.248;4.812;2024-01-16T00:35:57;35.41;33.89;37.00;;
69608;Laerm;57251;52.248;4.812;2024-01-16T00:36:08;35.38;34.04;36.83;;
69608;Laerm;57251;52.248;4.812;2024-01-16T00:36:18;35.33;33.57;37.50;;
69608;Laerm;57251;52.248;4.812;2024-01-16T00:36:29;35.59;33.99;37.31;;
69608;Laerm;57251;52.248;4.812;2024-01-16T00:36:39;36.52;34.43;38.76;;
69608;Laerm;57251;52.248;4.812;2024-01-16T00:36:50;36.78;34.39;39.44;;
69608;Laerm;57251;52.248;4.812;2024-01-16T00:37:00;35.51;33.79;37.10;;
69608;Laerm;57251;52.248;4.812;2024-01-16T00:37:10;34.97;33.29;36.67;;
69608;Laerm;57251;52.248;4.812;2024-01-16T00:37:21;34.71;33.14;37.43;;
69608;Laerm;57251;52.248;4.812;2024-01-16T00:37:31;34.87;33.18;36.63;;
69608;Laerm;57251;52.248;4.812;2024-01-16T00:37:41;35.06;33.57;36.52;;
69608;Laerm;57251;52.248;4.812;2024-01-16T00:37:52;35.20;33.81;37.27;;
69608;Laerm;57251;52.248;4.812;2024-01-16T00:38:02;35.13;33.60;37.66;;
69608;Laerm;57251;52.248;4.812;2024-01-16T00:38:12;35.20;33.33;36.82;;
69608;Laerm;57251;52.248;4.812;2024-01-16T00:38:23;35.10;33.19;36.95;;
69608;Laerm;57251;52.248;4.812;2024-01-16T00:38:33;35.52;33.56;39.82;;
69608;Laerm;57251;52.248;4.812;2024-01-16T00:38:44;35.08;33.00;40.77;;
69608;Laerm;57251;52.248;4.812;2024-01-16T00:38:55;34.62;33.10;36.44;;
69608;Laerm;57251;52.248;4.812;2024-01-16T00:39:05;35.06;33.60;36.42;;
69608;Laerm;57251;52.248;4.812;2024-01-16T00:39:15;35.01;33.50;36.91;;
69608;Laerm;57251;52.248;4.812;2024-01-16T00:39:25;34.68;33.16;36.65;;
69608;Laerm;57251;52.248;4.812;2024-01-16T00:39:36;34.71;33.22;36.15;;
69608;Laerm;57251;52.248;4.812;2024-01-16T00:39:46;34.95;33.07;37.42;;
69608;Laerm;57251;52.248;4.812;2024-01-16T00:39:56;35.14;33.55;37.16;;
69608;Laerm;57251;52.248;4.812;2024-01-16T00:40:07;34.91;33.33;36.50;;
69608;Laerm;57251;52.248;4.812;2024-01-16T00:40:18;34.95;33.28;36.48;;
69608;Laerm;57251;52.248;4.812;2024-01-16T00:40:29;35.37;32.94;37.46;;
69608;Laerm;57251;52.248;4.812;2024-01-16T00:40:39;35.10;33.37;36.80;;
69608;Laerm;57251;52.248;4.812;2024-01-16T00:40:49;35.34;33.51;37.23;;
69608;Laerm;57251;52.248;4.812;2024-01-16T00:41:00;35.03;33.13;37.45;;
69608;Laerm;57251;52.248;4.812;2024-01-16T00:41:10;34.95;33.32;36.55;;
69608;Laerm;57251;52.248;4.812;2024-01-16T00:41:21;34.67;32.92;36.37;;
69608;Laerm;57251;52.248;4.812;2024-01-16T00:41:31;34.77;33.29;36.73;;
69608;Laerm;57251;52.248;4.812;2024-01-16T00:41:41;34.87;32.50;36.96;;
69608;Laerm;57251;52.248;4.812;2024-01-16T00:41:51;34.89;33.55;36.57;;
69608;Laerm;57251;52.248;4.812;2024-01-16T00:42:02;34.56;33.12;36.16;;
69608;Laerm;57251;52.248;4.812;2024-01-16T00:42:13;35.09;32.93;37.33;;
69608;Laerm;57251;52.248;4.812;2024-01-16T00:42:23;35.17;33.72;36.87;;
69608;Laerm;57251;52.248;4.812;2024-01-16T00:42:33;35.07;33.16;37.33;;
69608;Laerm;57251;52.248;4.812;2024-01-16T00:42:43;35.04;33.52;37.87;;
69608;Laerm;57251;52.248;4.812;2024-01-16T00:42:54;34.81;33.36;36.53;;
69608;Laerm;57251;52.248;4.812;2024-01-16T00:43:04;34.63;33.17;35.83;;
69608;Laerm;57251;52.248;4.812;2024-01-16T00:43:14;34.94;33.01;37.02;;
69608;Laerm;57251;52.248;4.812;2024-01-16T00:43:24;34.61;33.03;36.52;;
69608;Laerm;57251;52.248;4.812;2024-01-16T00:43:35;34.67;33.22;36.38;;
69608;Laerm;57251;52.248;4.812;2024-01-16T00:43:45;35.70;33.54;42.31;;
69608;Laerm;57251;52.248;4.812;2024-01-16T00:43:55;35.25;33.11;40.27;;
69608;Laerm;57251;52.248;4.812;2024-01-16T00:44:06;35.17;33.64;36.97;;
69608;Laerm;57251;52.248;4.812;2024-01-16T00:44:17;35.19;32.93;37.28;;
69608;Laerm;57251;52.248;4.812;2024-01-16T00:44:28;34.91;33.36;37.63;;
69608;Laerm;57251;52.248;4.812;2024-01-16T00:44:38;34.95;33.38;37.40;;
69608;Laerm;57251;52.248;4.812;2024-01-16T00:44:48;35.22;32.60;37.45;;
69608;Laerm;57251;52.248;4.812;2024-01-16T00:44:59;35.26;33.56;36.76;;
69608;Laerm;57251;52.248;4.812;2024-01-16T00:45:09;35.24;33.49;36.54;;
69608;Laerm;57251;52.248;4.812;2024-01-16T00:45:19;34.93;33.28;36.36;;
69608;Laerm;57251;52.248;4.812;2024-01-16T00:45:31;35.07;33.61;37.18;;
69608;Laerm;57251;52.248;4.812;2024-01-16T00:45:41;35.26;33.64;37.13;;
69608;Laerm;57251;52.248;4.812;2024-01-16T00:45:51;35.40;33.93;37.41;;
69608;Laerm;57251;52.248;4.812;2024-01-16T00:46:02;35.08;33.45;37.09;;
69608;Laerm;57251;52.248;4.812;2024-01-16T00:46:12;43.75;33.97;55.83;;
69608;Laerm;57251;52.248;4.812;2024-01-16T00:46:22;37.22;33.17;49.14;;
69608;Laerm;57251;52.248;4.812;2024-01-16T00:46:33;35.13;33.71;42.66;;
69608;Laerm;57251;52.248;4.812;2024-01-16T00:46:43;34.93;33.46;36.46;;
69608;Laerm;57251;52.248;4.812;2024-01-16T00:46:53;35.30;33.17;37.03;;
69608;Laerm;57251;52.248;4.812;2024-01-16T00:47:03;35.18;33.28;38.60;;
69608;Laerm;57251;52.248;4.812;2024-01-16T00:47:15;35.23;33.75;36.96;;
69608;Laerm;57251;52.248;4.812;2024-01-16T00:47:25;35.15;33.40;37.12;;
69608;Laerm;57251;52.248;4.812;2024-01-16T00:47:36;42.93;34.06;55.63;;
69608;Laerm;57251;52.248;4.812;2024-01-16T00:47:46;38.60;33.82;54.27;;
69608;Laerm;57251;52.248;4.812;2024-01-16T00:47:56;35.38;33.62;37.29;;
69608;Laerm;57251;52.248;4.812;2024-01-16T00:48:07;35.61;33.97;37.25;;
69608;Laerm;57251;52.248;4.812;2024-01-16T00:48:19;35.36;33.42;37.20;;
69608;Laerm;57251;52.248;4.812;2024-01-16T00:48:30;35.48;33.61;43.18;;
69608;Laerm;57251;52.248;4.812;2024-01-16T00:48:41;34.77;33.20;36.76;;
69608;Laerm;57251;52.248;4.812;2024-01-16T00:48:51;44.62;33.14;58.28;;
69608;Laerm;57251;52.248;4.812;2024-01-16T00:49:01;34.64;32.47;36.55;;
69608;Laerm;57251;52.248;4.812;2024-01-16T00:49:11;35.33;33.11;41.24;;
69608;Laerm;57251;52.248;4.812;2024-01-16T00:49:22;35.60;33.04;42.42;;
69608;Laerm;57251;52.248;4.812;2024-01-16T00:49:32;34.59;32.69;37.00;;
69608;Laerm;57251;52.248;4.812;2024-01-16T00:49:42;34.87;33.07;37.03;;
69608;Laerm;57251;52.248;4.812;2024-01-16T00:49:53;34.97;33.31;36.93;;
69608;Laerm;57251;52.248;4.812;2024-01-16T00:50:03;34.73;33.15;36.97;;
69608;Laerm;57251;52.248;4.812;2024-01-16T00:50:13;35.05;33.32;40.87;;
69608;Laerm;57251;52.248;4.812;2024-01-16T00:50:23;38.48;33.42;51.68;;
69608;Laerm;57251;52.248;4.812;2024-01-16T00:50:34;37.12;33.26;46.98;;
69608;Laerm;57251;52.248;4.812;2024-01-16T00:50:45;34.75;33.28;37.17;;
69608;Laerm;57251;52.248;4.812;2024-01-16T00:50:56;35.35;33.74;39.75;;
69608;Laerm;57251;52.248;4.812;2024-01-16T00:51:06;35.57;33.50;37.58;;
69608;Laerm;57251;52.248;4.812;2024-01-16T00:51:16;34.94;33.12;37.97;;
69608;Laerm;57251;52.248;4.812;2024-01-16T00:51:27;35.14;33.26;38.88;;
69608;Laerm;57251;52.248;4.812;2024-01-16T00:51:37;35.31;33.19;40.56;;
69608;Laerm;57251;52.248;4.812;2024-01-16T00:51:47;35.49;33.66;41.37;;
69608;Laerm;57251;52.248;4.812;2024-01-16T00:51:57;35.41;33.62;39.67;;
69608;Laerm;57251;52.248;4.812;2024-01-16T00:52:08;35.23;33.48;36.83;;
69608;Laerm;57251;52.248;4.812;2024-01-16T00:52:18;35.59;33.64;42.87;;
69608;Laerm;57251;52.248;4.812;2024-01-16T00:52:29;35.41;33.15;43.41;;
69608;Laerm;57251;52.248;4.812;2024-01-16T00:52:39;35.69;33.38;43.55;;
69608;Laerm;57251;52.248;4.812;2024-01-16T00:52:49;35.68;33.62;41.46;;
69608;Laerm;57251;52.248;4.812;2024-01-16T00:53:00;35.21;33.89;40.93;;
69608;Laerm;57251;52.248;4.812;2024-01-16T00:53:10;34.83;32.70;37.26;;
69608;Laerm;57251;52.248;4.812;2024-01-16T00:53:20;34.92;32.74;40.11;;
69608;Laerm;57251;52.248;4.812;2024-01-16T00:53:30;34.79;33.38;36.79;;
69608;Laerm;57251;52.248;4.812;2024-01-16T00:53:41;34.91;33.06;38.05;;
69608;Laerm;57251;52.248;4.812;2024-01-16T00:53:51;49.58;33.31;64.37;;
69608;Laerm;57251;52.248;4.812;2024-01-16T00:54:01;42.28;32.88;55.37;;
69608;Laerm;57251;52.248;4.812;2024-01-16T00:54:12;42.02;33.27;54.31;;
69608;Laerm;57251;52.248;4.812;2024-01-16T00:54:22;40.54;33.84;48.97;;
69608;Laerm;57251;52.248;4.812;2024-01-16T00:54:32;41.01;33.25;52.58;;
69608;Laerm;57251;52.248;4.812;2024-01-16T00:54:43;52.70;33.59;65.93;;
69608;Laerm;57251;52.248;4.812;2024-01-16T00:54:53;54.97;34.16;67.44;;
69608;Laerm;57251;52.248;4.812;2024-01-16T00:55:04;49.94;33.23;65.86;;
69608;Laerm;57251;52.248;4.812;2024-01-16T00:55:14;58.68;34.33;70.42;;
69608;Laerm;57251;52.248;4.812;2024-01-16T00:55:24;44.93;33.79;55.51;;
69608;Laerm;57251;52.248;4.812;2024-01-16T00:55:35;47.87;34.08;61.04;;
69608;Laerm;57251;52.248;4.812;2024-01-16T00:55:45;55.94;35.28;64.32;;
69608;Laerm;57251;52.248;4.812;2024-01-16T00:55:55;51.15;33.96;63.97;;
69608;Laerm;57251;52.248;4.812;2024-01-16T00:56:06;42.11;33.58;52.81;;
69608;Laerm;57251;52.248;4.812;2024-01-16T00:56:16;41.46;33.65;54.57;;
69608;Laerm;57251;52.248;4.812;2024-01-16T00:56:26;40.01;33.67;50.45;;
69608;Laerm;57251;52.248;4.812;2024-01-16T00:56:41;39.99;32.92;54.02;;
69608;Laerm;57251;52.248;4.812;2024-01-16T00:56:52;43.33;33.57;57.34;;
69608;Laerm;57251;52.248;4.812;2024-01-16T00:57:05;50.96;33.66;67.92;;
69608;Laerm;57251;52.248;4.812;2024-01-16T00:57:16;47.51;33.78;60.82;;
69608;Laerm;57251;52.248;4.812;2024-01-16T00:57:29;50.95;33.76;66.85;;
69608;Laerm;57251;52.248;4.812;2024-01-16T00:57:39;58.13;34.83;71.64;;
69608;Laerm;57251;52.248;4.812;2024-01-16T00:57:49;39.47;33.06;51.91;;
69608;Laerm;57251;52.248;4.812;2024-01-16T00:57:59;37.03;33.23;44.88;;
69608;Laerm;57251;52.248;4.812;2024-01-16T00:58:10;53.52;33.66;63.54;;
69608;Laerm;57251;52.248;4.812;2024-01-16T00:58:24;51.62;33.99;67.12;;
69608;Laerm;57251;52.248;4.812;2024-01-16T00:58:34;37.58;33.42;46.27;;
69608;Laerm;57251;52.248;4.812;2024-01-16T00:58:44;43.76;33.25;54.24;;
69608;Laerm;57251;52.248;4.812;2024-01-16T00:58:54;45.63;34.83;57.41;;
69608;Laerm;57251;52.248;4.812;2024-01-16T00:59:05;47.97;33.32;60.72;;
69608;Laerm;57251;52.248;4.812;2024-01-16T00:59:15;47.60;33.46;59.98;;